createdAt,value
2019-02-10T00:00:29.025Z,2.47
2019-02-10T00:03:59.156Z,2.44
2019-02-10T00:07:29.391Z,2.41
2019-02-10T00:10:59.435Z,2.43
2019-02-10T00:14:29.368Z,2.46
2019-02-10T00:18:01.206Z,2.44
2019-02-10T00:21:31.305Z,2.48
2019-02-10T00:25:01.412Z,2.43
2019-02-10T00:28:31.582Z,2.39
2019-02-10T00:32:01.818Z,2.38
2019-02-10T00:35:32.016Z,2.35
2019-02-10T00:39:03.562Z,2.34
2019-02-10T00:42:33.692Z,2.33
2019-02-10T00:46:03.800Z,2.35
2019-02-10T00:49:33.908Z,2.34
2019-02-10T00:53:04.056Z,2.35
2019-02-10T00:56:34.174Z,2.3
2019-02-10T01:00:04.591Z,2.26
2019-02-10T01:03:34.733Z,2.23
2019-02-10T01:07:04.877Z,2.24
2019-02-10T01:10:34.965Z,2.21
2019-02-10T01:14:05.184Z,2.19
2019-02-10T01:17:35.251Z,2.17
2019-02-10T01:21:06.500Z,2.17
2019-02-10T01:24:36.618Z,2.09
2019-02-10T01:28:07.015Z,2.08
2019-02-10T01:31:37.178Z,2.02
2019-02-10T01:35:07.573Z,2.04
2019-02-10T01:38:37.709Z,2.11
2019-02-10T01:42:07.917Z,2.05
2019-02-10T01:45:37.936Z,2.06
2019-02-10T01:49:08.103Z,2.06
2019-02-10T01:52:38.262Z,2.07
2019-02-10T01:56:08.370Z,2.06
2019-02-10T01:59:38.587Z,2.04
2019-02-10T02:00:15.207Z,2.04
2019-02-10T02:03:45.315Z,1.99
2019-02-10T02:07:15.523Z,2
2019-02-10T02:10:45.602Z,1.99
2019-02-10T02:14:15.709Z,2.01
2019-02-10T02:17:45.877Z,1.96
2019-02-10T02:21:16.938Z,1.95
2019-02-10T02:24:46.968Z,1.97
2019-02-10T02:28:17.126Z,2
2019-02-10T02:31:47.287Z,1.93
2019-02-10T02:35:17.337Z,1.88
2019-02-10T02:38:47.468Z,1.89
2019-02-10T02:42:17.582Z,1.9
2019-02-10T02:45:47.709Z,1.84
2019-02-10T02:49:17.926Z,1.79
2019-02-10T02:52:48.074Z,1.74
2019-02-10T02:56:18.111Z,1.74
2019-02-10T02:59:48.090Z,1.69
2019-02-10T03:03:18.207Z,1.67
2019-02-10T03:06:48.815Z,1.73
2019-02-10T03:10:18.892Z,1.73
2019-02-10T03:13:48.991Z,1.76
2019-02-10T03:17:19.120Z,1.78
2019-02-10T03:20:49.241Z,1.76
2019-02-10T03:24:20.185Z,1.78
2019-02-10T03:27:50.343Z,1.78
2019-02-10T03:31:20.482Z,1.78
2019-02-10T03:34:50.569Z,1.8
2019-02-10T03:38:20.647Z,1.74
2019-02-10T03:41:50.874Z,1.74
2019-02-10T03:45:20.932Z,1.76
2019-02-10T03:48:51.071Z,1.85
2019-02-10T03:52:21.228Z,1.69
2019-02-10T03:55:51.356Z,1.68
2019-02-10T03:59:21.484Z,1.76
2019-02-10T04:00:15.888Z,1.77
2019-02-10T04:03:45.993Z,1.84
2019-02-10T04:07:16.040Z,1.87
2019-02-10T04:10:46.187Z,1.94
2019-02-10T04:14:16.255Z,1.97
2019-02-10T04:17:46.363Z,2.02
2019-02-10T04:21:16.492Z,2.09
2019-02-10T04:24:47.531Z,2.1
2019-02-10T04:28:17.538Z,2.1
2019-02-10T04:31:47.649Z,2.09
2019-02-10T04:35:17.721Z,2.11
2019-02-10T04:38:47.854Z,2.12
2019-02-10T04:42:17.908Z,2.2
2019-02-10T04:45:48.136Z,2.16
2019-02-10T04:49:18.314Z,2.17
2019-02-10T04:52:48.473Z,2.12
2019-02-10T04:56:18.618Z,2.03
2019-02-10T04:59:48.858Z,1.99
2019-02-10T05:03:18.916Z,1.93
2019-02-10T05:06:49.094Z,1.88
2019-02-10T05:10:19.171Z,1.85
2019-02-10T05:13:49.211Z,1.91
2019-02-10T05:17:19.247Z,1.9
2019-02-10T05:20:49.256Z,1.89
2019-02-10T05:24:19.484Z,1.83
2019-02-10T05:27:50.664Z,1.69
2019-02-10T05:31:20.851Z,1.76
2019-02-10T05:34:50.938Z,1.82
2019-02-10T05:38:21.026Z,1.82
2019-02-10T05:41:51.194Z,1.78
2019-02-10T05:45:21.412Z,1.87
2019-02-10T05:48:51.482Z,1.97
2019-02-10T05:52:21.507Z,2.05
2019-02-10T05:55:51.605Z,2
2019-02-10T05:59:21.698Z,2.08
2019-02-10T06:00:16.123Z,2.1
2019-02-10T06:03:46.262Z,2.26
2019-02-10T06:07:16.576Z,2.35
2019-02-10T06:10:46.937Z,2.49
2019-02-10T06:14:17.135Z,2.59
2019-02-10T06:17:47.303Z,2.73
2019-02-10T06:21:17.361Z,2.85
2019-02-10T06:24:47.558Z,2.97
2019-02-10T06:28:17.739Z,3.02
2019-02-10T06:31:47.924Z,3.14
2019-02-10T06:35:18.116Z,3.21
2019-02-10T06:38:48.261Z,3.33
2019-02-10T06:42:18.290Z,3.47
2019-02-10T06:45:48.426Z,3.47
2019-02-10T06:49:18.524Z,3.4
2019-02-10T06:52:48.662Z,3.52
2019-02-10T06:56:18.851Z,3.6
2019-02-10T06:59:54.129Z,3.77
2019-02-10T07:03:32.096Z,3.89
2019-02-10T07:07:02.244Z,3.94
2019-02-10T07:10:32.383Z,4.03
2019-02-10T07:14:10.054Z,4.14
2019-02-10T07:20:33.057Z,4.22
2019-02-10T07:24:44.144Z,4.34
2019-02-10T07:29:00.353Z,4.42
2019-02-10T07:32:35.460Z,4.51
2019-02-10T07:38:42.267Z,4.64
2019-02-10T07:42:22.493Z,4.6
2019-02-10T07:46:03.074Z,4.6
2019-02-10T07:50:13.740Z,4.62
2019-02-10T07:58:28.596Z,4.45
2019-02-10T08:01:53.594Z,4.64
2019-02-10T08:05:34.502Z,4.72
2019-02-10T08:13:18.088Z,4.76
2019-02-10T08:16:59.486Z,4.88
2019-02-10T08:20:45.924Z,4.78
2019-02-10T08:26:48.120Z,5.09
2019-02-10T08:30:28.040Z,5.04
2019-02-10T08:36:33.026Z,4.93
2019-02-10T08:40:15.753Z,5.1
2019-02-10T08:43:53.221Z,5.09
2019-02-10T08:47:40.989Z,5.34
2019-02-10T08:53:37.105Z,5.31
2019-02-10T08:57:07.184Z,5.14
2019-02-10T09:00:37.394Z,5.18
2019-02-10T09:04:07.500Z,5.24
2019-02-10T09:07:37.625Z,5.49
2019-02-10T09:11:07.752Z,5.56
2019-02-10T09:14:37.878Z,5.79
2019-02-10T09:18:08.044Z,5.74
2019-02-10T09:21:38.242Z,5.85
2019-02-10T09:25:08.799Z,6.04
2019-02-10T09:28:38.937Z,6.02
2019-02-10T09:32:10.155Z,6.21
2019-02-10T09:35:40.243Z,6.38
2019-02-10T09:39:11.161Z,6.33
2019-02-10T09:42:41.419Z,6.34
2019-02-10T09:46:11.537Z,6.3
2019-02-10T09:49:41.685Z,6.61
2019-02-10T09:53:11.684Z,6.82
2019-02-10T09:56:41.852Z,6.96
2019-02-10T10:00:16.202Z,7.12
2019-02-10T10:03:46.308Z,7.12
2019-02-10T10:07:16.406Z,7.22
2019-02-10T10:10:46.555Z,7.57
2019-02-10T10:14:16.673Z,7.91
2019-02-10T10:17:46.782Z,7.69
2019-02-10T10:21:16.879Z,7.85
2019-02-10T10:24:50.509Z,7.9
2019-02-10T10:28:20.978Z,8.36
2019-02-10T10:31:51.074Z,8.37
2019-02-10T10:35:22.073Z,8.51
2019-02-10T10:38:52.220Z,8.68
2019-02-10T10:42:22.309Z,9.07
2019-02-10T10:45:52.541Z,9.26
2019-02-10T10:49:22.634Z,9.65
2019-02-10T10:52:52.703Z,10.09
2019-02-10T10:56:22.853Z,10.58
2019-02-10T10:59:52.970Z,11.23
2019-02-10T11:03:23.128Z,11.44
2019-02-10T11:06:53.287Z,11.32
2019-02-10T11:10:23.395Z,11.34
2019-02-10T11:13:53.495Z,11.62
2019-02-10T11:17:23.642Z,11.83
2019-02-10T11:20:53.720Z,11.81
2019-02-10T11:24:28.557Z,11.99
2019-02-10T11:27:59.126Z,12.08
2019-02-10T11:31:29.219Z,12.65
2019-02-10T11:34:59.364Z,12.71
2019-02-10T11:38:30.493Z,12.97
2019-02-10T11:42:00.600Z,13.22
2019-02-10T11:45:30.729Z,13.45
2019-02-10T11:49:00.877Z,13.37
2019-02-10T11:52:31.049Z,13.55
2019-02-10T11:56:01.294Z,13.69
2019-02-10T11:59:31.393Z,14.1
2019-02-10T12:00:16.362Z,14.15
2019-02-10T12:03:46.461Z,14.36
2019-02-10T12:07:16.631Z,14.15
2019-02-10T12:10:46.787Z,13.91
2019-02-10T12:14:16.816Z,13.95
2019-02-10T12:17:47.016Z,14.5
2019-02-10T12:21:17.103Z,14.79
2019-02-10T12:24:47.233Z,14.71
2019-02-10T12:28:17.323Z,14.52
2019-02-10T12:31:47.469Z,14.4
2019-02-10T12:35:17.790Z,14.41
2019-02-10T12:38:48.026Z,14.3
2019-02-10T12:42:18.076Z,14.39
2019-02-10T12:45:48.195Z,13.82
2019-02-10T12:49:18.452Z,14.05
2019-02-10T12:52:48.600Z,14.25
2019-02-10T12:56:18.669Z,13.98
2019-02-10T12:59:48.707Z,13.97
2019-02-10T13:03:18.806Z,13.77
2019-02-10T13:06:49.004Z,13.26
2019-02-10T13:10:19.133Z,13.02
2019-02-10T13:13:49.271Z,12.88
2019-02-10T13:17:19.344Z,12.58
2019-02-10T13:20:49.445Z,12.38
2019-02-10T13:24:19.647Z,12.07
2019-02-10T13:27:49.916Z,11.98
2019-02-10T13:31:20.044Z,12.01
2019-02-10T13:34:50.111Z,11.57
2019-02-10T13:38:20.240Z,11.1
2019-02-10T13:41:59.978Z,10.56
2019-02-10T13:45:30.108Z,10.3
2019-02-10T13:49:00.277Z,10.49
2019-02-10T13:52:30.323Z,10.46
2019-02-10T13:56:00.482Z,10.19
2019-02-10T13:59:30.542Z,10.05
2019-02-10T14:00:16.893Z,10.02
2019-02-10T14:03:46.929Z,10.18
2019-02-10T14:07:17.101Z,10.21
2019-02-10T14:10:55.331Z,10.6
2019-02-10T14:14:25.425Z,10.76
2019-02-10T14:17:55.469Z,10.88
2019-02-10T14:21:25.563Z,10.6
2019-02-10T14:24:55.765Z,10.29
2019-02-10T14:28:25.944Z,10.21
2019-02-10T14:31:56.074Z,9.92
2019-02-10T14:35:26.226Z,9.66
2019-02-10T14:38:56.433Z,9.61
2019-02-10T14:42:27.485Z,9.39
2019-02-10T14:45:57.644Z,9.27
2019-02-10T14:49:27.783Z,9.12
2019-02-10T14:52:57.892Z,9.09
2019-02-10T14:56:28.043Z,8.94
2019-02-10T14:59:58.200Z,8.78
2019-02-10T15:03:28.225Z,8.93
2019-02-10T15:06:58.540Z,8.81
2019-02-10T15:10:28.629Z,8.65
2019-02-10T15:13:58.778Z,8.51
2019-02-10T15:17:29.843Z,8.2
2019-02-10T15:21:00.120Z,8.06
2019-02-10T15:24:30.225Z,8.01
2019-02-10T15:28:00.366Z,7.95
2019-02-10T15:31:30.415Z,7.8
2019-02-10T15:35:00.524Z,7.67
2019-02-10T15:38:30.733Z,7.53
2019-02-10T15:42:08.985Z,7.39
2019-02-10T15:45:39.462Z,7.12
2019-02-10T15:49:09.481Z,6.97
2019-02-10T15:52:39.610Z,6.81
2019-02-10T15:56:09.769Z,6.63
2019-02-10T15:59:39.838Z,6.47
2019-02-10T16:00:18.787Z,6.44
2019-02-10T16:03:48.958Z,6.4
2019-02-10T16:07:19.138Z,6.33
2019-02-10T16:10:49.197Z,6.17
2019-02-10T16:14:19.236Z,6.08
2019-02-10T16:17:49.343Z,5.96
2019-02-10T16:21:19.453Z,5.86
2019-02-10T16:24:49.585Z,5.74
2019-02-10T16:28:19.692Z,5.67
2019-02-10T16:31:49.872Z,5.63
2019-02-10T16:35:19.921Z,5.62
2019-02-10T16:38:49.969Z,5.68
2019-02-10T16:42:20.169Z,5.54
2019-02-10T16:45:51.289Z,5.45
2019-02-10T16:49:21.418Z,5.37
2019-02-10T16:52:51.527Z,5.27
2019-02-10T16:56:21.717Z,5.14
2019-02-10T16:59:51.834Z,5.05
2019-02-10T17:03:21.884Z,5.06
2019-02-10T17:06:52.143Z,4.96
2019-02-10T17:10:22.161Z,4.98
2019-02-10T17:13:52.347Z,5.06
2019-02-10T17:17:22.414Z,5.1
2019-02-10T17:20:52.499Z,5.04
2019-02-10T17:24:22.520Z,5.12
2019-02-10T17:27:52.631Z,5.1
2019-02-10T17:31:22.806Z,4.98
2019-02-10T17:34:52.987Z,5.04
2019-02-10T17:38:23.066Z,5.11
2019-02-10T17:41:53.276Z,5.18
2019-02-10T17:45:23.453Z,5.18
2019-02-10T17:48:54.663Z,5.12
2019-02-10T17:52:31.861Z,5.06
2019-02-10T17:56:02.462Z,4.99
2019-02-10T17:59:32.471Z,4.93
2019-02-10T18:00:16.850Z,4.93
2019-02-10T18:03:46.858Z,4.92
2019-02-10T18:07:16.949Z,4.97
2019-02-10T18:10:47.136Z,4.96
2019-02-10T18:16:46.367Z,4.98
2019-02-10T18:20:25.995Z,5
2019-02-10T18:24:21.223Z,4.99
2019-02-10T18:30:20.253Z,5
2019-02-10T18:34:07.421Z,5.05
2019-02-10T18:37:44.293Z,5.01
2019-02-10T18:41:23.131Z,4.97
2019-02-10T18:45:31.489Z,5.01
2019-02-10T18:49:14.678Z,5.01
2019-02-10T18:52:53.080Z,4.98
2019-02-10T18:56:37.827Z,5
2019-02-10T19:02:39.367Z,4.9
2019-02-10T19:06:46.994Z,4.84
2019-02-10T19:10:24.784Z,4.82
2019-02-10T19:14:20.982Z,4.75
2019-02-10T19:18:13.480Z,4.71
2019-02-10T19:21:55.361Z,4.73
2019-02-10T19:26:36.919Z,4.71
2019-02-10T19:30:19.097Z,4.56
2019-02-10T19:34:05.888Z,4.54
2019-02-10T19:37:46.466Z,4.46
2019-02-10T19:41:29.267Z,4.53
2019-02-10T19:49:49.414Z,4.57
2019-02-10T19:53:33.742Z,4.54
2019-02-10T19:57:26.085Z,4.61
2019-02-10T20:00:28.712Z,4.5
2019-02-10T20:04:39.041Z,4.47
2019-02-10T20:08:19.278Z,4.39
2019-02-10T20:14:52.026Z,4.29
2019-02-10T20:18:32.768Z,4.3
2019-02-10T20:22:42.916Z,4.36
2019-02-10T20:29:10.865Z,4.47
2019-02-10T20:33:03.534Z,4.49
2019-02-10T20:36:44.502Z,4.53
2019-02-10T20:42:46.830Z,4.51
2019-02-10T20:46:29.209Z,4.48
2019-02-10T20:52:27.077Z,4.49
2019-02-10T20:56:03.077Z,4.46
2019-02-10T20:59:41.312Z,4.38
2019-02-10T21:06:01.737Z,4.55
2019-02-10T21:09:49.694Z,4.55
2019-02-10T21:18:13.029Z,4.48
2019-02-10T21:21:50.003Z,4.43
2019-02-10T21:26:35.201Z,4.43
2019-02-10T21:30:13.538Z,4.46
2019-02-10T21:33:51.537Z,4.57
2019-02-10T21:38:33.317Z,4.63
2019-02-10T21:42:10.106Z,4.48
2019-02-10T21:45:46.264Z,4.51
2019-02-10T21:49:18.393Z,4.42
2019-02-10T21:52:48.624Z,4.49
2019-02-10T21:56:18.813Z,4.56
2019-02-10T21:59:48.842Z,4.52
2019-02-10T22:00:16.951Z,4.5
2019-02-10T22:03:47.100Z,4.48
2019-02-10T22:07:17.614Z,4.5
2019-02-10T22:10:47.690Z,4.54
2019-02-10T22:14:17.731Z,4.45
2019-02-10T22:17:47.888Z,4.39
2019-02-10T22:21:18.127Z,4.47
2019-02-10T22:24:48.325Z,4.47
2019-02-10T22:28:18.626Z,4.51
2019-02-10T22:31:48.743Z,4.48
2019-02-10T22:35:18.782Z,4.5
2019-02-10T22:38:48.869Z,4.49
2019-02-10T22:42:18.991Z,4.47
2019-02-10T22:45:49.030Z,4.47
2019-02-10T22:49:19.189Z,4.49
2019-02-10T22:52:50.229Z,4.52
2019-02-10T22:56:20.442Z,4.5
2019-02-10T22:59:50.496Z,4.53
2019-02-10T23:03:20.765Z,4.5
2019-02-10T23:06:50.926Z,4.46
2019-02-10T23:10:21.054Z,4.5
2019-02-10T23:13:51.123Z,4.47
2019-02-10T23:17:21.262Z,4.42
2019-02-10T23:20:51.332Z,4.41
2019-02-10T23:24:21.382Z,4.36
2019-02-10T23:27:51.700Z,4.3
2019-02-10T23:31:21.718Z,4.18
2019-02-10T23:34:51.809Z,4.14
2019-02-10T23:38:22.008Z,4.16
2019-02-10T23:41:52.197Z,4.24
2019-02-10T23:45:22.246Z,4.34
2019-02-10T23:48:52.346Z,4.49
2019-02-10T23:52:22.373Z,4.63
2019-02-10T23:55:53.396Z,4.67
2019-02-10T23:59:23.476Z,4.63
